createdAt,value
2018-09-18T00:00:35.833Z,16.20
2018-09-18T00:03:04.325Z,16.30
2018-09-18T00:05:32.778Z,16.50
2018-09-18T00:08:01.290Z,16.50
2018-09-18T00:10:29.794Z,16.40
2018-09-18T00:12:58.289Z,16.30
2018-09-18T00:15:26.798Z,16.10
2018-09-18T00:17:55.321Z,16.00
2018-09-18T00:20:23.810Z,15.80
2018-09-18T00:22:52.342Z,15.70
2018-09-18T00:25:20.835Z,15.50
2018-09-18T00:27:49.503Z,15.30
2018-09-18T00:30:18.038Z,15.30
2018-09-18T00:32:46.531Z,15.30
2018-09-18T00:35:15.843Z,15.20
2018-09-18T00:37:44.337Z,15.10
2018-09-18T00:40:12.910Z,15.00
2018-09-18T00:42:41.419Z,14.90
2018-09-18T00:45:09.924Z,14.80
2018-09-18T00:47:38.367Z,14.90
2018-09-18T00:50:06.955Z,14.90
2018-09-18T00:52:35.409Z,15.00
2018-09-18T00:55:03.906Z,14.90
2018-09-18T00:57:32.389Z,15.00
2018-09-18T01:00:00.951Z,15.10
2018-09-18T01:02:29.659Z,15.20
2018-09-18T01:04:58.151Z,15.40
2018-09-18T01:07:26.610Z,15.50
2018-09-18T01:09:55.190Z,15.60
2018-09-18T01:12:23.688Z,15.70
2018-09-18T01:14:52.151Z,15.80
2018-09-18T01:17:20.635Z,16.00
2018-09-18T01:19:49.053Z,16.00
2018-09-18T01:22:17.534Z,16.00
2018-09-18T01:24:45.923Z,16.10
2018-09-18T01:27:14.454Z,16.20
2018-09-18T01:29:43.199Z,16.00
2018-09-18T01:32:11.668Z,15.70
2018-09-18T01:34:40.129Z,15.40
2018-09-18T01:37:08.768Z,15.00
2018-09-18T01:39:37.358Z,14.70
2018-09-18T01:42:05.961Z,14.40
2018-09-18T01:44:34.537Z,14.30
2018-09-18T01:47:03.262Z,14.10
2018-09-18T01:49:31.758Z,13.80
2018-09-18T01:52:00.218Z,13.60
2018-09-18T01:54:28.719Z,13.40
2018-09-18T01:56:57.248Z,13.20
2018-09-18T01:59:25.815Z,13.00
2018-09-18T02:01:54.286Z,12.80
2018-09-18T02:04:22.763Z,12.70
2018-09-18T02:06:51.222Z,12.60
2018-09-18T02:09:19.883Z,12.40
2018-09-18T02:11:48.363Z,12.30
2018-09-18T02:14:16.872Z,12.30
2018-09-18T02:16:45.352Z,12.20
2018-09-18T02:19:13.770Z,12.40
2018-09-18T02:21:42.141Z,12.70
2018-09-18T02:24:10.642Z,12.70
2018-09-18T02:26:39.084Z,12.60
2018-09-18T02:29:07.589Z,12.40
2018-09-18T02:31:36.110Z,12.40
2018-09-18T02:34:04.602Z,12.30
2018-09-18T02:36:33.082Z,12.30
2018-09-18T02:39:01.589Z,12.40
2018-09-18T02:41:30.051Z,12.60
2018-09-18T02:43:58.427Z,12.60
2018-09-18T02:46:26.847Z,12.60
2018-09-18T02:48:55.235Z,12.80
2018-09-18T02:51:23.658Z,12.90
2018-09-18T02:53:52.157Z,12.90
2018-09-18T02:56:20.543Z,13.00
2018-09-18T02:58:49.043Z,13.00
2018-09-18T03:01:17.515Z,12.90
2018-09-18T03:03:46.771Z,12.70
2018-09-18T03:06:15.105Z,12.70
2018-09-18T03:08:43.422Z,12.60
2018-09-18T03:11:12.004Z,12.50
2018-09-18T03:13:40.394Z,12.40
2018-09-18T03:16:08.891Z,12.30
2018-09-18T03:18:37.339Z,12.10
2018-09-18T03:21:05.869Z,11.90
2018-09-18T03:23:34.271Z,11.80
2018-09-18T03:26:02.772Z,11.70
2018-09-18T03:28:31.192Z,11.60
2018-09-18T03:30:59.915Z,11.50
2018-09-18T03:33:28.348Z,11.50
2018-09-18T03:35:56.925Z,11.50
2018-09-18T03:38:25.359Z,11.50
2018-09-18T03:40:53.815Z,11.50
2018-09-18T03:43:22.325Z,11.50
2018-09-18T03:45:50.815Z,11.50
2018-09-18T03:48:19.426Z,11.40
2018-09-18T03:50:47.898Z,11.50
2018-09-18T03:53:16.378Z,11.40
2018-09-18T03:55:44.853Z,11.30
2018-09-18T03:58:13.394Z,11.20
2018-09-18T04:00:41.860Z,11.00
2018-09-18T04:03:10.299Z,11.00
2018-09-18T04:05:38.750Z,10.90
2018-09-18T04:08:07.172Z,10.90
2018-09-18T04:10:35.663Z,10.70
2018-09-18T04:13:04.152Z,10.80
2018-09-18T04:15:32.618Z,10.70
2018-09-18T04:18:01.131Z,10.70
2018-09-18T04:20:29.631Z,10.60
2018-09-18T04:22:58.095Z,10.60
2018-09-18T04:25:26.613Z,10.60
2018-09-18T04:27:55.059Z,10.50
2018-09-18T04:30:24.677Z,10.50
2018-09-18T04:32:53.130Z,10.60
2018-09-18T04:35:21.696Z,10.60
2018-09-18T04:37:50.193Z,10.60
2018-09-18T04:40:18.695Z,10.60
2018-09-18T04:42:47.231Z,10.50
2018-09-18T04:45:15.697Z,10.60
2018-09-18T04:47:44.197Z,10.70
2018-09-18T04:50:12.707Z,10.70
2018-09-18T04:52:41.190Z,10.80
2018-09-18T04:55:09.915Z,10.80
2018-09-18T04:57:38.430Z,10.90
2018-09-18T05:00:07.603Z,11.00
2018-09-18T05:02:36.111Z,11.00
2018-09-18T05:05:04.899Z,11.10
2018-09-18T05:07:33.380Z,11.10
2018-09-18T05:10:01.938Z,11.00
2018-09-18T05:12:30.562Z,11.10
2018-09-18T05:14:59.054Z,11.00
2018-09-18T05:17:27.638Z,10.90
2018-09-18T05:19:56.086Z,10.80
2018-09-18T05:22:24.677Z,10.80
2018-09-18T05:24:53.154Z,10.80
2018-09-18T05:27:21.618Z,10.80
2018-09-18T05:29:50.045Z,10.80
2018-09-18T05:32:18.533Z,10.90
2018-09-18T05:34:47.422Z,10.90
2018-09-18T05:37:15.842Z,11.00
2018-09-18T05:39:44.346Z,11.20
2018-09-18T05:42:12.775Z,11.50
2018-09-18T05:44:41.116Z,11.40
2018-09-18T05:47:10.391Z,11.50
2018-09-18T05:49:38.857Z,11.50
2018-09-18T05:52:07.263Z,11.60
2018-09-18T05:54:35.674Z,11.60
2018-09-18T05:57:04.134Z,11.70
2018-09-18T05:59:32.810Z,11.90
2018-09-18T06:02:01.279Z,12.00
2018-09-18T06:04:29.730Z,12.10
2018-09-18T06:06:58.192Z,12.30
2018-09-18T06:09:26.705Z,12.40
2018-09-18T06:11:55.195Z,12.50
2018-09-18T06:14:23.747Z,12.70
2018-09-18T06:16:52.321Z,13.00
2018-09-18T06:19:21.007Z,13.20
2018-09-18T06:21:49.434Z,13.40
2018-09-18T06:24:17.957Z,13.80
2018-09-18T06:26:46.473Z,14.40
2018-09-18T06:29:15.052Z,14.70
2018-09-18T06:31:43.614Z,15.00
2018-09-18T06:34:12.384Z,15.20
2018-09-18T06:36:40.868Z,15.50
2018-09-18T06:39:11.679Z,15.60
2018-09-18T06:41:41.879Z,15.90
2018-09-18T06:44:11.719Z,16.10
2018-09-18T06:46:41.550Z,16.40
2018-09-18T06:49:11.296Z,16.60
2018-09-18T06:51:41.637Z,16.90
2018-09-18T06:54:10.307Z,17.30
2018-09-18T06:56:38.839Z,17.60
2018-09-18T06:59:07.363Z,17.70
2018-09-18T07:01:35.898Z,17.80
2018-09-18T07:04:05.330Z,18.00
2018-09-18T07:06:34.055Z,18.10
2018-09-18T07:09:02.863Z,18.30
2018-09-18T07:11:31.732Z,18.50
2018-09-18T07:14:00.268Z,18.60
2018-09-18T07:16:28.782Z,18.70
2018-09-18T07:18:57.290Z,18.80
2018-09-18T07:21:25.805Z,18.90
2018-09-18T07:23:54.308Z,19.10
2018-09-18T07:26:22.814Z,19.20
2018-09-18T07:28:51.342Z,19.30
2018-09-18T07:31:21.354Z,19.40
2018-09-18T07:33:56.276Z,19.50
2018-09-18T07:36:25.066Z,19.60
2018-09-18T07:38:53.612Z,19.80
2018-09-18T07:41:23.726Z,19.90
2018-09-18T07:43:53.309Z,19.90
2018-09-18T07:46:22.472Z,20.00
2018-09-18T07:48:52.329Z,20.10
2018-09-18T07:51:20.909Z,20.20
2018-09-18T07:53:49.461Z,20.40
2018-09-18T07:56:18.035Z,20.50
2018-09-18T07:58:47.309Z,20.70
2018-09-18T08:01:16.480Z,20.80
2018-09-18T08:03:45.033Z,20.90
2018-09-18T08:06:13.565Z,21.00
2018-09-18T08:08:42.121Z,21.10
2018-09-18T08:11:10.674Z,21.20
2018-09-18T08:13:39.326Z,21.20
2018-09-18T08:16:07.849Z,21.30
2018-09-18T08:18:36.383Z,21.40
2018-09-18T08:21:04.882Z,21.50
2018-09-18T08:23:33.359Z,21.50
2018-09-18T08:26:01.845Z,21.60
2018-09-18T08:28:30.328Z,21.70
2018-09-18T08:30:58.808Z,21.80
2018-09-18T08:33:27.340Z,21.80
2018-09-18T08:35:55.813Z,21.90
2018-09-18T08:38:24.530Z,21.90
2018-09-18T08:40:53.138Z,21.90
2018-09-18T08:43:21.717Z,22.00
2018-09-18T08:45:50.216Z,22.10
2018-09-18T08:48:18.725Z,22.20
2018-09-18T08:50:47.230Z,22.30
2018-09-18T08:53:15.799Z,22.30
2018-09-18T08:55:44.238Z,22.40
2018-09-18T08:58:12.685Z,22.40
2018-09-18T09:00:41.269Z,22.40
2018-09-18T09:03:10.001Z,22.50
2018-09-18T09:05:39.831Z,22.60
2018-09-18T09:08:09.302Z,22.60
2018-09-18T09:10:40.041Z,22.80
2018-09-18T09:13:08.518Z,22.80
2018-09-18T09:15:37.069Z,22.90
2018-09-18T09:18:06.728Z,23.00
2018-09-18T09:20:37.316Z,23.20
2018-09-18T09:23:05.865Z,23.30
2018-09-18T09:25:39.226Z,23.40
2018-09-18T09:28:10.058Z,23.50
2018-09-18T09:30:38.543Z,23.60
2018-09-18T09:33:07.024Z,23.70
2018-09-18T09:35:35.605Z,23.70
2018-09-18T09:38:04.117Z,23.80
2018-09-18T09:40:32.619Z,23.90
2018-09-18T09:43:01.185Z,24.00
2018-09-18T09:45:29.688Z,24.10
2018-09-18T09:47:58.238Z,24.30
2018-09-18T09:50:26.727Z,24.40
2018-09-18T09:52:55.185Z,24.40
2018-09-18T09:55:28.903Z,24.50
2018-09-18T09:57:57.473Z,24.60
2018-09-18T10:00:32.138Z,24.80
2018-09-18T10:03:00.698Z,24.90
2018-09-18T10:05:29.242Z,25.00
2018-09-18T10:07:57.849Z,25.30
2018-09-18T10:10:30.254Z,25.50
2018-09-18T10:12:58.720Z,25.60
2018-09-18T10:15:27.201Z,25.50
2018-09-18T10:17:55.797Z,25.70
2018-09-18T10:20:24.343Z,25.90
2018-09-18T10:22:52.957Z,26.10
2018-09-18T10:25:21.558Z,25.80
2018-09-18T10:27:50.121Z,25.90
2018-09-18T10:30:18.705Z,25.90
2018-09-18T10:32:47.340Z,25.90
2018-09-18T10:35:16.376Z,26.00
2018-09-18T10:37:44.847Z,26.10
2018-09-18T10:40:13.301Z,26.20
2018-09-18T10:42:43.851Z,26.30
2018-09-18T10:45:13.028Z,26.40
2018-09-18T10:47:42.107Z,26.60
2018-09-18T10:50:14.972Z,26.70
2018-09-18T10:52:44.613Z,26.60
2018-09-18T10:55:13.357Z,26.60
2018-09-18T10:57:42.306Z,26.60
2018-09-18T11:00:11.432Z,26.60
2018-09-18T11:02:40.117Z,26.80
2018-09-18T11:05:08.569Z,26.50
2018-09-18T11:07:37.045Z,26.60
2018-09-18T11:10:05.618Z,26.60
2018-09-18T11:12:35.880Z,26.70
2018-09-18T11:15:04.245Z,26.70
2018-09-18T11:17:32.486Z,26.80
2018-09-18T11:20:00.879Z,26.90
2018-09-18T11:22:29.299Z,27.00
2018-09-18T11:24:57.608Z,27.00
2018-09-18T11:27:25.941Z,27.00
2018-09-18T11:29:54.258Z,27.10
2018-09-18T11:32:22.588Z,27.00
2018-09-18T11:34:50.927Z,26.90
2018-09-18T11:37:19.258Z,26.80
2018-09-18T11:39:47.615Z,26.70
2018-09-18T11:42:15.970Z,26.60
2018-09-18T11:44:44.294Z,26.70
2018-09-18T11:47:12.635Z,26.80
2018-09-18T11:49:40.970Z,26.80
2018-09-18T11:52:10.261Z,27.00
2018-09-18T11:54:38.695Z,27.00
2018-09-18T11:57:07.145Z,27.00
2018-09-18T11:59:35.534Z,27.10
2018-09-18T12:02:04.158Z,27.10
2018-09-18T12:04:32.533Z,27.20
2018-09-18T12:07:00.938Z,27.20
2018-09-18T12:09:29.306Z,27.20
2018-09-18T12:11:57.745Z,27.20
2018-09-18T12:14:26.320Z,27.30
2018-09-18T12:16:54.821Z,27.30
2018-09-18T12:19:23.223Z,27.50
2018-09-18T12:21:51.607Z,27.50
2018-09-18T12:24:19.994Z,27.60
2018-09-18T12:26:48.372Z,27.70
2018-09-18T12:29:16.866Z,27.80
2018-09-18T12:31:45.368Z,27.70
2018-09-18T12:34:14.234Z,27.80
2018-09-18T12:36:42.718Z,27.90
2018-09-18T12:39:11.306Z,28.00
2018-09-18T12:41:40.446Z,28.20
2018-09-18T12:44:08.961Z,28.10
2018-09-18T12:46:37.491Z,28.20
2018-09-18T12:49:06.119Z,28.20
2018-09-18T12:51:34.520Z,28.40
2018-09-18T12:54:03.111Z,28.20
2018-09-18T12:56:31.636Z,28.40
2018-09-18T12:59:00.256Z,28.40
2018-09-18T13:01:28.690Z,28.70
2018-09-18T13:03:57.236Z,28.80
2018-09-18T13:06:25.990Z,28.90
2018-09-18T13:08:54.496Z,28.90
2018-09-18T13:11:22.971Z,28.70
2018-09-18T13:13:51.490Z,28.60
2018-09-18T13:16:19.973Z,28.60
2018-09-18T13:18:48.526Z,28.70
2018-09-18T13:21:17.025Z,28.80
2018-09-18T13:23:45.591Z,28.90
2018-09-18T13:26:14.227Z,29.20
2018-09-18T13:28:42.765Z,29.30
2018-09-18T13:31:11.330Z,29.40
2018-09-18T13:33:39.823Z,29.50
2018-09-18T13:36:08.347Z,29.50
2018-09-18T13:38:36.942Z,29.20
2018-09-18T13:41:05.471Z,29.50
2018-09-18T13:43:34.809Z,29.80
2018-09-18T13:46:03.265Z,29.80
2018-09-18T13:48:31.833Z,30.00
2018-09-18T13:51:00.317Z,29.80
2018-09-18T13:53:28.847Z,29.90
2018-09-18T13:55:57.243Z,30.20
2018-09-18T13:58:25.728Z,30.10
2018-09-18T14:00:54.188Z,30.20
2018-09-18T14:03:22.654Z,30.50
2018-09-18T14:05:51.139Z,30.60
2018-09-18T14:08:19.928Z,31.00
2018-09-18T14:10:48.504Z,30.70
2018-09-18T14:13:17.026Z,30.90
2018-09-18T14:15:45.676Z,30.90
2018-09-18T14:18:14.784Z,31.30
2018-09-18T14:20:43.358Z,31.10
2018-09-18T14:23:11.916Z,31.10
2018-09-18T14:25:40.463Z,31.20
2018-09-18T14:28:09.130Z,31.20
2018-09-18T14:30:37.691Z,31.10
2018-09-18T14:33:06.302Z,31.30
2018-09-18T14:35:34.863Z,31.40
2018-09-18T14:38:03.521Z,31.70
2018-09-18T14:40:32.163Z,31.70
2018-09-18T14:43:00.611Z,31.30
2018-09-18T14:45:29.188Z,31.10
2018-09-18T14:47:57.710Z,31.00
2018-09-18T14:50:26.266Z,31.00
2018-09-18T14:52:54.793Z,30.80
2018-09-18T14:55:23.429Z,30.90
2018-09-18T14:57:52.048Z,30.80
2018-09-18T15:00:20.651Z,30.70
2018-09-18T15:02:49.391Z,30.80
2018-09-18T15:05:17.855Z,30.70
2018-09-18T15:07:46.445Z,30.70
2018-09-18T15:10:14.975Z,30.40
2018-09-18T15:12:43.841Z,30.30
2018-09-18T15:15:12.711Z,30.30
2018-09-18T15:17:41.369Z,30.40
2018-09-18T15:20:09.935Z,30.60
2018-09-18T15:22:38.763Z,30.80
2018-09-18T15:25:07.269Z,31.00
2018-09-18T15:27:35.924Z,30.90
2018-09-18T15:30:04.645Z,30.90
2018-09-18T15:32:33.366Z,30.70
2018-09-18T15:35:01.945Z,30.80
2018-09-18T15:37:30.494Z,30.60
2018-09-18T15:39:59.070Z,30.70
2018-09-18T15:42:27.878Z,30.90
2018-09-18T15:44:56.395Z,30.40
2018-09-18T15:47:27.088Z,29.90
2018-09-18T15:49:55.535Z,29.30
2018-09-18T15:52:24.035Z,28.60
2018-09-18T15:54:54.951Z,28.10
2018-09-18T15:57:23.859Z,28.00
2018-09-18T15:59:54.444Z,28.00
2018-09-18T16:02:26.005Z,27.70
2018-09-18T16:04:55.563Z,27.40
2018-09-18T16:07:26.013Z,27.10
2018-09-18T16:09:54.835Z,26.90
2018-09-18T16:12:23.635Z,26.70
2018-09-18T16:14:54.170Z,26.50
2018-09-18T16:17:22.544Z,26.40
2018-09-18T16:19:53.612Z,26.20
2018-09-18T16:22:22.084Z,26.10
2018-09-18T16:24:52.445Z,26.10
2018-09-18T16:27:21.161Z,26.00
2018-09-18T16:29:49.883Z,25.90
2018-09-18T16:32:20.596Z,25.80
2018-09-18T16:34:49.154Z,25.70
2018-09-18T16:37:17.546Z,25.50
2018-09-18T16:39:48.302Z,25.40
2018-09-18T16:42:17.014Z,25.20
2018-09-18T16:44:46.837Z,25.00
2018-09-18T16:47:17.253Z,24.80
2018-09-18T16:49:48.035Z,24.60
2018-09-18T16:52:19.213Z,24.40
2018-09-18T16:54:47.773Z,24.20
2018-09-18T16:57:18.676Z,24.00
2018-09-18T16:59:48.538Z,23.80
2018-09-18T17:02:17.088Z,23.60
2018-09-18T17:04:48.212Z,23.30
2018-09-18T17:07:16.691Z,23.20
2018-09-18T17:09:45.086Z,22.90
2018-09-18T17:12:13.693Z,22.70
2018-09-18T17:14:42.241Z,22.50
2018-09-18T17:17:10.727Z,22.40
2018-09-18T17:19:39.386Z,22.20
2018-09-18T17:22:07.850Z,22.10
2018-09-18T17:24:36.231Z,22.00
2018-09-18T17:27:04.582Z,21.90
2018-09-18T17:29:32.890Z,21.80
2018-09-18T17:32:01.354Z,21.70
2018-09-18T17:34:29.833Z,21.60
2018-09-18T17:36:58.500Z,22.00
2018-09-18T17:39:26.830Z,22.40
2018-09-18T17:41:55.197Z,22.60
2018-09-18T17:44:23.641Z,22.80
2018-09-18T17:46:51.983Z,22.80
2018-09-18T17:49:20.323Z,22.70
2018-09-18T17:51:48.670Z,22.60
2018-09-18T17:54:16.996Z,22.50
2018-09-18T17:56:45.523Z,22.20
2018-09-18T17:59:13.956Z,21.90
2018-09-18T18:01:42.420Z,21.60
2018-09-18T18:04:10.948Z,21.20
2018-09-18T18:06:39.424Z,20.90
2018-09-18T18:09:08.034Z,20.50
2018-09-18T18:11:36.403Z,20.20
2018-09-18T18:14:04.822Z,20.00
2018-09-18T18:16:33.157Z,19.80
2018-09-18T18:19:02.518Z,19.50
2018-09-18T18:21:30.836Z,19.30
2018-09-18T18:23:59.287Z,19.00
2018-09-18T18:26:27.796Z,18.80
2018-09-18T18:28:56.219Z,18.60
2018-09-18T18:31:24.755Z,18.40
2018-09-18T18:33:53.126Z,18.30
2018-09-18T18:36:21.516Z,18.20
2018-09-18T18:38:49.864Z,18.00
2018-09-18T18:41:18.150Z,18.00
2018-09-18T18:43:46.514Z,17.90
2018-09-18T18:46:14.966Z,17.80
2018-09-18T18:48:43.293Z,17.80
2018-09-18T18:51:11.607Z,17.70
2018-09-18T18:53:39.931Z,17.60
2018-09-18T18:56:08.235Z,17.60
2018-09-18T18:58:36.580Z,17.60
2018-09-18T19:01:05.044Z,17.50
2018-09-18T19:03:33.454Z,17.50
2018-09-18T19:06:01.908Z,17.50
2018-09-18T19:08:30.288Z,17.50
2018-09-18T19:10:59.697Z,17.50
2018-09-18T19:13:28.159Z,17.40
2018-09-18T19:15:56.650Z,17.40
2018-09-18T19:18:25.125Z,17.40
2018-09-18T19:20:53.591Z,17.30
2018-09-18T19:23:21.980Z,17.30
2018-09-18T19:25:50.276Z,17.20
2018-09-18T19:28:18.611Z,17.30
2018-09-18T19:30:47.037Z,17.20
2018-09-18T19:33:15.500Z,17.20
2018-09-18T19:35:43.698Z,17.30
2018-09-18T19:38:12.039Z,17.50
2018-09-18T19:40:40.377Z,17.70
2018-09-18T19:43:08.768Z,17.80
2018-09-18T19:45:37.051Z,17.90
2018-09-18T19:48:05.387Z,18.00
2018-09-18T19:50:33.814Z,18.10
2018-09-18T19:53:02.034Z,18.10
2018-09-18T19:55:30.462Z,18.20
2018-09-18T19:57:58.786Z,18.50
2018-09-18T20:00:27.126Z,18.60
2018-09-18T20:02:55.542Z,18.70
2018-09-18T20:05:23.856Z,18.80
2018-09-18T20:07:52.190Z,18.90
2018-09-18T20:10:20.561Z,19.00
2018-09-18T20:12:48.927Z,19.20
2018-09-18T20:15:17.328Z,19.20
2018-09-18T20:17:45.669Z,19.00
2018-09-18T20:20:14.093Z,18.90
2018-09-18T20:22:42.441Z,19.00
2018-09-18T20:25:11.029Z,19.10
2018-09-18T20:27:39.349Z,19.00
2018-09-18T20:30:07.686Z,19.00
2018-09-18T20:32:36.023Z,19.00
2018-09-18T20:35:04.425Z,18.90
2018-09-18T20:37:32.732Z,18.90
2018-09-18T20:40:01.060Z,18.90
2018-09-18T20:42:29.394Z,18.80
2018-09-18T20:44:57.710Z,18.70
2018-09-18T20:47:26.085Z,18.60
2018-09-18T20:49:54.428Z,18.60
2018-09-18T20:52:22.787Z,18.60
2018-09-18T20:54:51.155Z,18.50
2018-09-18T20:57:19.496Z,18.50
2018-09-18T20:59:47.932Z,18.60
2018-09-18T21:02:16.354Z,18.40
2018-09-18T21:04:44.645Z,18.40
2018-09-18T21:07:13.057Z,18.20
2018-09-18T21:09:41.395Z,18.10
2018-09-18T21:12:09.748Z,18.00
2018-09-18T21:14:38.084Z,17.90
2018-09-18T21:17:06.409Z,17.80
2018-09-18T21:19:34.726Z,17.60
2018-09-18T21:22:03.045Z,17.50
2018-09-18T21:24:31.379Z,17.50
2018-09-18T21:26:59.707Z,17.40
2018-09-18T21:29:28.067Z,17.40
2018-09-18T21:31:56.403Z,17.20
2018-09-18T21:34:24.763Z,17.10
2018-09-18T21:36:53.122Z,16.90
2018-09-18T21:39:21.467Z,16.80
2018-09-18T21:41:49.826Z,16.70
2018-09-18T21:44:18.261Z,16.70
2018-09-18T21:46:46.645Z,16.50
2018-09-18T21:49:15.082Z,16.50
2018-09-18T21:51:43.490Z,16.40
2018-09-18T21:54:11.927Z,16.30
2018-09-18T21:56:40.310Z,16.20
2018-09-18T21:59:08.777Z,16.10
2018-09-18T22:01:37.141Z,16.00
2018-09-18T22:04:05.467Z,15.90
2018-09-18T22:06:33.821Z,15.80
2018-09-18T22:09:02.162Z,15.60
2018-09-18T22:11:30.514Z,15.50
2018-09-18T22:13:58.861Z,15.40
2018-09-18T22:16:27.223Z,15.30
2018-09-18T22:18:55.569Z,15.20
2018-09-18T22:21:23.961Z,15.10
2018-09-18T22:23:52.302Z,15.10
2018-09-18T22:26:20.652Z,15.00
2018-09-18T22:28:48.997Z,14.80
2018-09-18T22:31:17.335Z,14.70
2018-09-18T22:33:45.647Z,14.70
2018-09-18T22:36:14.033Z,14.60
2018-09-18T22:38:42.302Z,14.50
2018-09-18T22:41:10.652Z,14.40
2018-09-18T22:43:39.032Z,14.40
2018-09-18T22:46:07.361Z,14.30
2018-09-18T22:48:35.727Z,14.20
2018-09-18T22:51:04.066Z,14.10
2018-09-18T22:53:32.428Z,14.00
2018-09-18T22:56:00.738Z,13.90
2018-09-18T22:58:29.124Z,13.90
2018-09-18T23:00:57.463Z,13.80
2018-09-18T23:03:25.860Z,13.80
2018-09-18T23:05:54.186Z,13.70
2018-09-18T23:08:22.589Z,13.70
2018-09-18T23:10:50.933Z,13.70
2018-09-18T23:13:19.287Z,13.70
2018-09-18T23:15:47.794Z,13.90
2018-09-18T23:18:17.357Z,13.80
2018-09-18T23:20:45.838Z,13.70
2018-09-18T23:23:14.375Z,13.60
2018-09-18T23:25:42.808Z,13.50
2018-09-18T23:28:11.192Z,13.40
2018-09-18T23:30:39.703Z,13.20
2018-09-18T23:33:08.154Z,13.10
2018-09-18T23:35:36.606Z,13.00
2018-09-18T23:38:05.201Z,12.80
2018-09-18T23:40:35.651Z,12.80
2018-09-18T23:43:04.012Z,12.80
2018-09-18T23:45:32.354Z,12.70
2018-09-18T23:48:00.710Z,12.60
2018-09-18T23:50:29.103Z,12.50
2018-09-18T23:52:57.487Z,12.50
2018-09-18T23:55:25.893Z,12.40
2018-09-18T23:57:54.289Z,12.40
